createdAt,value
2018-08-24T00:00:14.702Z,100179.00
2018-08-24T00:02:44.783Z,100179.00
2018-08-24T00:05:14.597Z,100184.00
2018-08-24T00:07:44.564Z,100187.00
2018-08-24T00:10:14.536Z,100172.00
2018-08-24T00:12:44.383Z,100177.00
2018-08-24T00:15:14.273Z,100177.00
2018-08-24T00:17:48.433Z,100178.00
2018-08-24T00:20:18.913Z,100182.00
2018-08-24T00:22:48.777Z,100178.00
2018-08-24T00:25:18.842Z,100174.00
2018-08-24T00:27:55.457Z,100178.00
2018-08-24T00:30:25.449Z,100167.00
2018-08-24T00:32:55.414Z,100165.00
2018-08-24T00:35:25.338Z,100165.00
2018-08-24T00:37:54.977Z,100165.00
2018-08-24T00:40:25.047Z,100163.00
2018-08-24T00:42:54.987Z,100163.00
2018-08-24T00:45:25.148Z,100156.00
2018-08-24T00:47:56.057Z,100158.00
2018-08-24T00:50:26.024Z,100163.00
2018-08-24T00:52:56.174Z,100165.00
2018-08-24T00:55:26.173Z,100177.00
2018-08-24T00:57:56.128Z,100187.00
2018-08-24T01:01:29.832Z,100176.00
2018-08-24T01:03:59.691Z,100185.00
2018-08-24T01:06:29.569Z,100192.00
2018-08-24T01:08:59.444Z,100196.00
2018-08-24T01:11:34.448Z,100203.00
2018-08-24T01:14:04.293Z,100195.00
2018-08-24T01:16:39.176Z,100198.00
2018-08-24T01:19:09.096Z,100195.00
2018-08-24T01:21:38.869Z,100196.00
2018-08-24T01:24:08.788Z,100194.00
2018-08-24T01:26:38.837Z,100193.00
2018-08-24T01:29:08.869Z,100186.00
2018-08-24T01:31:38.950Z,100172.00
2018-08-24T01:34:08.798Z,100174.00
2018-08-24T01:36:38.802Z,100171.00
2018-08-24T01:39:09.313Z,100172.00
2018-08-24T01:41:39.143Z,100172.00
2018-08-24T01:44:08.984Z,100178.00
2018-08-24T01:46:38.964Z,100170.00
2018-08-24T01:49:08.701Z,100179.00
2018-08-24T01:51:38.497Z,100168.00
2018-08-24T01:54:08.285Z,100172.00
2018-08-24T01:56:38.234Z,100171.00
2018-08-24T01:59:08.425Z,100171.00
2018-08-24T02:01:38.459Z,100168.00
2018-08-24T02:04:08.461Z,100172.00
2018-08-24T02:06:38.533Z,100171.00
2018-08-24T02:09:13.078Z,100176.00
2018-08-24T02:11:42.972Z,100177.00
2018-08-24T02:14:17.960Z,100172.00
2018-08-24T02:16:48.143Z,100176.00
2018-08-24T02:19:18.099Z,100179.00
2018-08-24T02:21:53.013Z,100175.00
2018-08-24T02:24:22.715Z,100179.00
2018-08-24T02:26:52.513Z,100170.00
2018-08-24T02:29:22.480Z,100169.00
2018-08-24T02:31:52.374Z,100165.00
2018-08-24T02:34:22.072Z,100163.00
2018-08-24T02:36:52.345Z,100165.00
2018-08-24T02:39:22.107Z,100171.00
2018-08-24T02:41:52.079Z,100174.00
2018-08-24T02:44:22.062Z,100177.00
2018-08-24T02:46:52.040Z,100185.00
2018-08-24T02:49:21.962Z,100188.00
2018-08-24T02:51:51.876Z,100183.00
2018-08-24T02:54:21.792Z,100181.00
2018-08-24T02:56:51.648Z,100179.00
2018-08-24T02:59:21.635Z,100174.00
2018-08-24T03:01:51.559Z,100167.00
2018-08-24T03:04:21.726Z,100164.00
2018-08-24T03:06:51.664Z,100169.00
2018-08-24T03:09:21.573Z,100165.00
2018-08-24T03:11:51.291Z,100170.00
2018-08-24T03:14:21.329Z,100171.00
2018-08-24T03:16:56.249Z,100172.00
2018-08-24T03:19:26.141Z,100165.00
2018-08-24T03:21:56.059Z,100169.00
2018-08-24T03:24:25.938Z,100172.00
2018-08-24T03:26:55.774Z,100172.00
2018-08-24T03:29:25.933Z,100176.00
2018-08-24T03:31:55.668Z,100180.00
2018-08-24T03:34:25.703Z,100181.00
2018-08-24T03:36:55.841Z,100180.00
2018-08-24T03:39:25.811Z,100181.00
2018-08-24T03:41:55.852Z,100179.00
2018-08-24T03:44:25.925Z,100188.00
2018-08-24T03:46:55.673Z,100188.00
2018-08-24T03:49:25.721Z,100178.00
2018-08-24T03:51:55.738Z,100181.00
2018-08-24T03:54:25.583Z,100185.00
2018-08-24T04:03:07.513Z,100192.00
2018-08-24T04:05:37.456Z,100196.00
2018-08-24T04:08:07.697Z,100195.00
2018-08-24T04:10:37.733Z,100200.00
2018-08-24T04:13:07.646Z,100197.00
2018-08-24T04:15:38.515Z,100194.00
2018-08-24T04:23:02.900Z,100190.00
2018-08-24T04:25:33.210Z,100200.00
2018-08-24T04:28:03.075Z,100198.00
2018-08-24T04:30:33.229Z,100192.00
2018-08-24T04:33:03.140Z,100192.00
2018-08-24T04:35:32.942Z,100193.00
2018-08-24T04:38:02.887Z,100194.00
2018-08-24T04:40:32.593Z,100198.00
2018-08-24T04:43:02.316Z,100195.00
2018-08-24T04:45:32.306Z,100198.00
2018-08-24T04:48:02.120Z,100201.00
2018-08-24T04:50:31.834Z,100203.00
2018-08-24T04:53:01.462Z,100201.00
2018-08-24T04:55:31.272Z,100205.00
2018-08-24T04:58:01.032Z,100209.00
2018-08-24T05:00:30.862Z,100208.00
2018-08-24T05:03:01.698Z,100207.00
2018-08-24T05:05:31.587Z,100213.00
2018-08-24T05:08:01.375Z,100214.00
2018-08-24T05:10:31.222Z,100226.00
2018-08-24T05:13:01.248Z,100214.00
2018-08-24T05:15:30.976Z,100208.00
2018-08-24T05:18:01.125Z,100213.00
2018-08-24T05:20:31.177Z,100211.00
2018-08-24T05:23:01.102Z,100215.00
2018-08-24T05:25:31.026Z,100221.00
2018-08-24T05:28:00.919Z,100219.00
2018-08-24T05:30:30.795Z,100220.00
2018-08-24T05:33:00.839Z,100225.00
2018-08-24T05:35:31.168Z,100232.00
2018-08-24T05:38:01.182Z,100229.00
2018-08-24T05:40:31.132Z,100226.00
2018-08-24T05:43:01.023Z,100226.00
2018-08-24T05:45:31.116Z,100225.00
2018-08-24T05:48:01.036Z,100226.00
2018-08-24T05:50:30.908Z,100228.00
2018-08-24T05:53:00.956Z,100228.00
2018-08-24T05:55:30.805Z,100226.00
2018-08-24T05:58:00.740Z,100227.00
2018-08-24T06:00:35.818Z,100230.00
2018-08-24T06:03:05.812Z,100227.00
2018-08-24T06:05:35.630Z,100231.00
2018-08-24T06:08:05.312Z,100235.00
2018-08-24T06:10:35.299Z,100239.00
2018-08-24T06:13:05.965Z,100237.00
2018-08-24T06:15:35.744Z,100240.00
2018-08-24T06:18:06.826Z,100237.00
2018-08-24T06:25:29.637Z,100242.00
2018-08-24T06:27:59.563Z,100244.00
2018-08-24T06:30:29.577Z,100247.00
2018-08-24T06:32:59.568Z,100238.00
2018-08-24T06:35:29.508Z,100243.00
2018-08-24T06:37:59.421Z,100238.00
2018-08-24T06:40:29.430Z,100241.00
2018-08-24T06:42:59.429Z,100246.00
2018-08-24T06:45:29.449Z,100247.00
2018-08-24T06:47:59.367Z,100244.00
2018-08-24T06:50:29.192Z,100252.00
2018-08-24T06:52:59.461Z,100252.00
2018-08-24T06:55:29.787Z,100253.00
2018-08-24T06:57:59.847Z,100260.00
2018-08-24T07:00:30.582Z,100259.00
2018-08-24T07:03:01.753Z,100268.00
2018-08-24T07:05:31.883Z,100267.00
2018-08-24T07:08:01.644Z,100274.00
2018-08-24T07:10:32.638Z,100268.00
2018-08-24T07:13:03.589Z,100262.00
2018-08-24T07:15:33.637Z,100264.00
2018-08-24T07:18:04.118Z,100247.00
2018-08-24T07:20:34.159Z,100271.00
2018-08-24T07:23:03.913Z,100281.00
2018-08-24T07:25:34.827Z,100283.00
2018-08-24T07:28:04.828Z,100284.00
2018-08-24T07:30:34.743Z,100283.00
2018-08-24T07:33:05.478Z,100281.00
2018-08-24T07:35:35.637Z,100280.00
2018-08-24T07:38:05.823Z,100291.00
2018-08-24T07:40:36.943Z,100294.00
2018-08-24T07:43:06.873Z,100304.00
2018-08-24T07:45:36.829Z,100324.00
2018-08-24T07:48:07.038Z,100317.00
2018-08-24T07:50:37.081Z,100316.00
2018-08-24T07:53:07.150Z,100309.00
2018-08-24T07:55:37.052Z,100325.00
2018-08-24T07:58:08.582Z,100321.00
2018-08-24T08:00:38.659Z,100320.00
2018-08-24T08:03:08.555Z,100318.00
2018-08-24T08:05:38.569Z,100335.00
2018-08-24T08:08:08.503Z,100332.00
2018-08-24T08:10:39.282Z,100330.00
2018-08-24T08:13:10.883Z,100330.00
2018-08-24T08:15:41.409Z,100325.00
2018-08-24T08:18:12.034Z,100339.00
2018-08-24T08:20:41.998Z,100329.00
2018-08-24T08:23:13.285Z,100336.00
2018-08-24T08:25:43.273Z,100319.00
2018-08-24T08:28:13.214Z,100338.00
2018-08-24T08:30:43.147Z,100342.00
2018-08-24T08:33:13.263Z,100362.00
2018-08-24T08:35:43.247Z,100363.00
2018-08-24T08:38:13.204Z,100364.00
2018-08-24T08:40:43.146Z,100356.00
2018-08-24T08:48:05.683Z,100372.00
2018-08-24T08:50:35.534Z,100385.00
2018-08-24T08:53:05.616Z,100384.00
2018-08-24T08:55:35.644Z,100393.00
2018-08-24T08:58:06.171Z,100385.00
2018-08-24T09:00:36.822Z,100384.00
2018-08-24T09:03:06.769Z,100385.00
2018-08-24T09:05:37.585Z,100385.00
2018-08-24T09:08:08.620Z,100396.00
2018-08-24T09:10:38.716Z,100398.00
2018-08-24T09:13:08.643Z,100402.00
2018-08-24T09:15:38.779Z,100408.00
2018-08-24T09:18:13.709Z,100406.00
2018-08-24T09:20:48.504Z,100404.00
2018-08-24T09:23:23.502Z,100406.00
2018-08-24T09:25:58.579Z,100403.00
2018-08-24T09:28:37.506Z,100413.00
2018-08-24T09:31:13.405Z,100411.00
2018-08-24T09:33:43.271Z,100405.00
2018-08-24T09:36:19.184Z,100419.00
2018-08-24T09:38:49.893Z,100421.00
2018-08-24T09:41:19.884Z,100417.00
2018-08-24T09:43:55.028Z,100421.00
2018-08-24T09:46:29.965Z,100423.00
2018-08-24T09:49:04.917Z,100421.00
2018-08-24T09:51:34.873Z,100416.00
2018-08-24T09:54:09.194Z,100416.00
2018-08-24T09:56:40.936Z,100414.00
2018-08-24T09:59:11.074Z,100412.00
2018-08-24T10:01:46.162Z,100411.00
2018-08-24T10:04:21.398Z,100407.00
2018-08-24T10:06:56.659Z,100427.00
2018-08-24T10:09:26.704Z,100406.00
2018-08-24T10:11:56.624Z,100408.00
2018-08-24T10:14:26.733Z,100419.00
2018-08-24T10:16:56.763Z,100418.00
2018-08-24T10:19:26.743Z,100415.00
2018-08-24T10:21:56.554Z,100414.00
2018-08-24T10:24:26.439Z,100417.00
2018-08-24T10:26:56.402Z,100413.00
2018-08-24T10:29:26.281Z,100415.00
2018-08-24T10:31:56.145Z,100416.00
2018-08-24T10:34:25.993Z,100414.00
2018-08-24T10:36:55.760Z,100413.00
2018-08-24T10:39:25.645Z,100413.00
2018-08-24T10:41:55.514Z,100418.00
2018-08-24T10:44:25.289Z,100412.00
2018-08-24T10:46:55.149Z,100414.00
2018-08-24T10:49:25.179Z,100407.00
2018-08-24T10:51:55.098Z,100409.00
2018-08-24T10:54:24.878Z,100412.00
2018-08-24T10:56:54.769Z,100412.00
2018-08-24T10:59:25.225Z,100412.00
2018-08-24T11:06:53.293Z,100408.00
2018-08-24T11:09:23.298Z,100400.00
2018-08-24T11:11:53.141Z,100402.00
2018-08-24T11:14:23.122Z,100398.00
2018-08-24T11:16:53.303Z,100390.00
2018-08-24T11:19:23.248Z,100385.00
2018-08-24T11:21:53.506Z,100384.00
2018-08-24T11:24:23.344Z,100384.00
2018-08-24T11:26:53.299Z,100387.00
2018-08-24T11:29:23.132Z,100386.00
2018-08-24T11:31:53.101Z,100388.00
2018-08-24T11:34:23.193Z,100398.00
2018-08-24T11:36:53.463Z,100393.00
2018-08-24T11:39:23.634Z,100391.00
2018-08-24T11:41:53.674Z,100383.00
2018-08-24T11:44:23.570Z,100384.00
2018-08-24T11:46:53.448Z,100386.00
2018-08-24T11:49:23.449Z,100388.00
2018-08-24T11:51:53.368Z,100382.00
2018-08-24T11:54:23.372Z,100383.00
2018-08-24T11:56:53.057Z,100387.00
2018-08-24T11:59:22.975Z,100386.00
2018-08-24T12:01:52.876Z,100391.00
2018-08-24T12:04:22.745Z,100383.00
2018-08-24T12:06:52.638Z,100391.00
2018-08-24T12:09:22.484Z,100390.00
2018-08-24T12:11:52.684Z,100383.00
2018-08-24T12:14:22.790Z,100379.00
2018-08-24T12:16:52.939Z,100374.00
2018-08-24T12:19:23.028Z,100370.00
2018-08-24T12:21:53.020Z,100375.00
2018-08-24T12:24:22.979Z,100385.00
2018-08-24T12:26:52.909Z,100381.00
2018-08-24T12:29:22.949Z,100388.00
2018-08-24T12:31:52.980Z,100383.00
2018-08-24T12:34:23.111Z,100389.00
2018-08-24T12:36:53.319Z,100382.00
2018-08-24T12:39:23.417Z,100385.00
2018-08-24T12:41:53.359Z,100385.00
2018-08-24T12:44:23.403Z,100380.00
2018-08-24T12:46:53.390Z,100382.00
2018-08-24T12:49:23.566Z,100385.00
2018-08-24T12:51:53.346Z,100381.00
2018-08-24T12:54:23.236Z,100378.00
2018-08-24T12:56:52.954Z,100376.00
2018-08-24T12:59:23.211Z,100378.00
2018-08-24T13:01:53.164Z,100375.00
2018-08-24T13:04:23.134Z,100373.00
2018-08-24T13:06:53.013Z,100379.00
2018-08-24T13:09:23.232Z,100368.00
2018-08-24T13:11:53.074Z,100372.00
2018-08-24T13:14:23.254Z,100376.00
2018-08-24T13:16:53.786Z,100350.00
2018-08-24T13:19:23.916Z,100353.00
2018-08-24T13:21:53.680Z,100354.00
2018-08-24T13:24:23.514Z,100355.00
2018-08-24T13:26:54.808Z,100359.00
2018-08-24T13:29:24.877Z,100364.00
2018-08-24T13:31:55.233Z,100352.00
2018-08-24T13:34:25.325Z,100352.00
2018-08-24T13:36:55.498Z,100362.00
2018-08-24T13:39:25.515Z,100346.00
2018-08-24T13:41:55.419Z,100339.00
2018-08-24T13:44:25.309Z,100345.00
2018-08-24T13:46:55.342Z,100346.00
2018-08-24T13:49:25.383Z,100341.00
2018-08-24T13:51:55.265Z,100345.00
2018-08-24T13:54:25.351Z,100342.00
2018-08-24T13:56:55.322Z,100347.00
2018-08-24T13:59:25.468Z,100342.00
2018-08-24T14:01:55.636Z,100339.00
2018-08-24T14:04:25.521Z,100347.00
2018-08-24T14:06:55.419Z,100347.00
2018-08-24T14:09:25.295Z,100341.00
2018-08-24T14:11:55.196Z,100353.00
2018-08-24T14:14:25.287Z,100347.00
2018-08-24T14:16:55.281Z,100344.00
2018-08-24T14:19:25.466Z,100345.00
2018-08-24T14:21:55.423Z,100343.00
2018-08-24T14:24:25.439Z,100346.00
2018-08-24T14:26:55.421Z,100340.00
2018-08-24T14:29:25.471Z,100340.00
2018-08-24T14:31:55.504Z,100337.00
2018-08-24T14:34:25.409Z,100344.00
2018-08-24T14:36:55.380Z,100341.00
2018-08-24T14:39:25.286Z,100340.00
2018-08-24T14:41:55.319Z,100336.00
2018-08-24T14:44:25.340Z,100331.00
2018-08-24T14:46:55.573Z,100328.00
2018-08-24T14:49:25.862Z,100335.00
2018-08-24T14:51:56.068Z,100324.00
2018-08-24T14:54:26.283Z,100317.00
2018-08-24T14:56:56.353Z,100337.00
2018-08-24T14:59:26.518Z,100327.00
2018-08-24T15:01:56.475Z,100332.00
2018-08-24T15:04:26.583Z,100336.00
2018-08-24T15:06:56.880Z,100317.00
2018-08-24T15:09:26.869Z,100322.00
2018-08-24T15:11:56.811Z,100317.00
2018-08-24T15:14:26.665Z,100319.00
2018-08-24T15:16:57.109Z,100312.00
2018-08-24T15:19:26.973Z,100314.00
2018-08-24T15:21:57.188Z,100319.00
2018-08-24T15:24:27.212Z,100316.00
2018-08-24T15:26:57.205Z,100319.00
2018-08-24T15:29:27.300Z,100306.00
2018-08-24T15:31:57.170Z,100317.00
2018-08-24T15:34:27.044Z,100308.00
2018-08-24T15:36:57.003Z,100308.00
2018-08-24T15:39:27.189Z,100312.00
2018-08-24T15:41:57.017Z,100309.00
2018-08-24T15:44:27.099Z,100319.00
2018-08-24T15:46:57.060Z,100332.00
2018-08-24T15:49:26.819Z,100317.00
2018-08-24T15:51:56.488Z,100312.00
2018-08-24T15:54:26.384Z,100317.00
2018-08-24T15:56:56.090Z,100322.00
2018-08-24T15:59:26.613Z,100320.00
2018-08-24T16:01:57.082Z,100325.00
2018-08-24T16:04:28.015Z,100326.00
2018-08-24T16:06:57.980Z,100324.00
2018-08-24T16:09:27.906Z,100337.00
2018-08-24T16:11:57.774Z,100336.00
2018-08-24T16:14:27.840Z,100334.00
2018-08-24T16:16:57.797Z,100338.00
2018-08-24T16:19:27.707Z,100339.00
2018-08-24T16:21:57.523Z,100332.00
2018-08-24T16:24:27.486Z,100337.00
2018-08-24T16:26:57.548Z,100346.00
2018-08-24T16:29:27.576Z,100332.00
2018-08-24T16:31:57.528Z,100331.00
2018-08-24T16:34:27.622Z,100331.00
2018-08-24T16:36:57.592Z,100335.00
2018-08-24T16:39:27.603Z,100324.00
2018-08-24T16:41:57.550Z,100329.00
2018-08-24T16:44:27.502Z,100326.00
2018-08-24T16:46:57.424Z,100327.00
2018-08-24T16:49:27.375Z,100302.00
2018-08-24T16:51:57.370Z,100330.00
2018-08-24T16:54:27.424Z,100335.00
2018-08-24T16:56:57.466Z,100329.00
2018-08-24T16:59:27.294Z,100332.00
2018-08-24T17:01:57.440Z,100335.00
2018-08-24T17:04:27.221Z,100339.00
2018-08-24T17:06:58.074Z,100338.00
2018-08-24T17:09:28.867Z,100338.00
2018-08-24T17:11:58.755Z,100338.00
2018-08-24T17:14:28.751Z,100339.00
2018-08-24T17:16:58.515Z,100337.00
2018-08-24T17:19:28.349Z,100341.00
2018-08-24T17:21:58.474Z,100340.00
2018-08-24T17:24:31.340Z,100335.00
2018-08-24T17:27:01.258Z,100336.00
2018-08-24T17:29:31.535Z,100334.00
2018-08-24T17:32:01.604Z,100333.00
2018-08-24T17:34:31.522Z,100336.00
2018-08-24T17:37:01.546Z,100334.00
2018-08-24T17:39:31.509Z,100333.00
2018-08-24T17:42:01.593Z,100332.00
2018-08-24T17:44:31.578Z,100324.00
2018-08-24T17:47:01.617Z,100328.00
2018-08-24T17:49:31.666Z,100329.00
2018-08-24T17:52:01.675Z,100334.00
2018-08-24T17:54:31.801Z,100329.00
2018-08-24T17:57:01.951Z,100331.00
2018-08-24T17:59:32.147Z,100338.00
2018-08-24T18:02:02.077Z,100328.00
2018-08-24T18:04:32.150Z,100333.00
2018-08-24T18:07:02.416Z,100338.00
2018-08-24T18:09:32.494Z,100337.00
2018-08-24T18:12:03.307Z,100336.00
2018-08-24T18:14:34.514Z,100330.00
2018-08-24T18:17:05.904Z,100337.00
2018-08-24T18:24:28.634Z,100340.00
2018-08-24T18:26:58.671Z,100339.00
2018-08-24T18:29:28.842Z,100338.00
2018-08-24T18:31:59.187Z,100348.00
2018-08-24T18:34:29.384Z,100343.00
2018-08-24T18:36:59.362Z,100341.00
2018-08-24T18:39:29.436Z,100337.00
2018-08-24T18:41:59.745Z,100337.00
2018-08-24T18:44:30.589Z,100339.00
2018-08-24T18:47:01.166Z,100346.00
2018-08-24T18:49:31.424Z,100352.00
2018-08-24T18:52:01.626Z,100345.00
2018-08-24T18:54:31.959Z,100352.00
2018-08-24T18:57:02.154Z,100351.00
2018-08-24T18:59:32.544Z,100353.00
2018-08-24T19:02:03.227Z,100352.00
2018-08-24T19:04:33.120Z,100355.00
2018-08-24T19:07:03.575Z,100359.00
2018-08-24T19:09:33.820Z,100357.00
2018-08-24T19:12:09.040Z,100359.00
2018-08-24T19:14:39.201Z,100355.00
2018-08-24T19:17:13.147Z,100360.00
2018-08-24T19:19:48.304Z,100361.00
2018-08-24T19:22:18.424Z,100360.00
2018-08-24T19:24:48.697Z,100362.00
2018-08-24T19:27:19.223Z,100366.00
2018-08-24T19:29:54.702Z,100369.00
2018-08-24T19:32:25.000Z,100367.00
2018-08-24T19:34:55.345Z,100368.00
2018-08-24T19:37:25.513Z,100362.00
2018-08-24T19:40:00.507Z,100364.00
2018-08-24T19:42:31.184Z,100361.00
2018-08-24T19:45:01.219Z,100368.00
2018-08-24T19:47:36.519Z,100360.00
2018-08-24T19:50:06.910Z,100362.00
2018-08-24T19:52:37.036Z,100360.00
2018-08-24T19:55:07.112Z,100358.00
2018-08-24T19:57:41.970Z,100358.00
2018-08-24T20:00:12.100Z,100357.00
2018-08-24T20:02:42.446Z,100361.00
2018-08-24T20:05:12.465Z,100357.00
2018-08-24T20:07:47.646Z,100360.00
2018-08-24T20:10:18.434Z,100353.00
2018-08-24T20:12:48.957Z,100357.00
2018-08-24T20:15:24.817Z,100354.00
2018-08-24T20:17:54.907Z,100355.00
2018-08-24T20:20:25.239Z,100346.00
2018-08-24T20:22:55.725Z,100346.00
2018-08-24T20:25:25.844Z,100348.00
2018-08-24T20:27:55.959Z,100346.00
2018-08-24T20:30:25.885Z,100339.00
2018-08-24T20:32:56.113Z,100338.00
2018-08-24T20:35:26.238Z,100333.00
2018-08-24T20:37:56.269Z,100330.00
2018-08-24T20:40:26.454Z,100333.00
2018-08-24T20:42:56.384Z,100327.00
2018-08-24T20:45:26.607Z,100322.00
2018-08-24T20:47:56.806Z,100321.00
2018-08-24T20:50:26.967Z,100323.00
2018-08-24T20:52:57.095Z,100323.00
2018-08-24T20:55:27.146Z,100326.00
2018-08-24T20:57:57.203Z,100318.00
2018-08-24T21:00:27.567Z,100317.00
2018-08-24T21:02:58.641Z,100315.00
2018-08-24T21:05:28.460Z,100313.00
2018-08-24T21:07:58.549Z,100315.00
2018-08-24T21:10:28.724Z,100320.00
2018-08-24T21:12:58.809Z,100313.00
2018-08-24T21:15:28.830Z,100317.00
2018-08-24T21:17:59.014Z,100314.00
2018-08-24T21:20:29.042Z,100309.00
2018-08-24T21:22:59.056Z,100306.00
2018-08-24T21:25:29.137Z,100305.00
2018-08-24T21:27:59.187Z,100302.00
2018-08-24T21:30:29.124Z,100301.00
2018-08-24T21:32:58.946Z,100300.00
2018-08-24T21:35:28.855Z,100295.00
2018-08-24T21:37:59.253Z,100295.00
2018-08-24T21:40:29.297Z,100295.00
2018-08-24T21:42:59.287Z,100293.00
2018-08-24T21:45:29.392Z,100293.00
2018-08-24T21:47:59.443Z,100287.00
2018-08-24T21:50:29.416Z,100292.00
2018-08-24T21:52:59.305Z,100288.00
2018-08-24T21:55:29.409Z,100296.00
2018-08-24T21:57:59.413Z,100295.00
2018-08-24T22:00:29.257Z,100292.00
2018-08-24T22:02:59.060Z,100286.00
2018-08-24T22:05:29.877Z,100284.00
2018-08-24T22:08:00.820Z,100282.00
2018-08-24T22:10:30.868Z,100289.00
2018-08-24T22:13:00.776Z,100286.00
2018-08-24T22:15:30.956Z,100286.00
2018-08-24T22:18:01.070Z,100288.00
2018-08-24T22:20:31.148Z,100288.00
2018-08-24T22:23:01.151Z,100290.00
2018-08-24T22:25:31.334Z,100286.00
2018-08-24T22:28:01.566Z,100293.00
2018-08-24T22:30:31.630Z,100292.00
2018-08-24T22:33:01.530Z,100288.00
2018-08-24T22:35:31.509Z,100291.00
2018-08-24T22:38:01.460Z,100290.00
2018-08-24T22:40:31.393Z,100289.00
2018-08-24T22:43:01.290Z,100290.00
2018-08-24T22:45:31.151Z,100285.00
2018-08-24T22:48:01.242Z,100286.00
2018-08-24T22:50:31.334Z,100288.00
2018-08-24T22:53:01.356Z,100283.00
2018-08-24T22:55:31.464Z,100280.00
2018-08-24T22:58:01.385Z,100277.00
2018-08-24T23:00:31.280Z,100279.00
2018-08-24T23:03:01.088Z,100272.00
2018-08-24T23:05:30.851Z,100270.00
2018-08-24T23:08:00.698Z,100270.00
2018-08-24T23:10:30.489Z,100265.00
2018-08-24T23:13:01.530Z,100265.00
2018-08-24T23:15:32.415Z,100263.00
2018-08-24T23:18:02.403Z,100256.00
2018-08-24T23:20:32.291Z,100261.00
2018-08-24T23:23:02.261Z,100253.00
2018-08-24T23:25:32.282Z,100249.00
2018-08-24T23:28:02.293Z,100247.00
2018-08-24T23:30:32.322Z,100247.00
2018-08-24T23:33:02.300Z,100237.00
2018-08-24T23:35:32.192Z,100238.00
2018-08-24T23:38:02.151Z,100243.00
2018-08-24T23:40:32.016Z,100237.00
2018-08-24T23:43:01.852Z,100229.00
2018-08-24T23:45:31.756Z,100230.00
2018-08-24T23:48:01.749Z,100228.00
2018-08-24T23:50:31.640Z,100224.00
2018-08-24T23:53:01.682Z,100219.00
2018-08-24T23:55:31.719Z,100212.00
2018-08-24T23:58:01.870Z,100216.00
